Time;durP1;ratioP1;P1;durP2;ratioP2;P2;SDS_P1;SDS_P2;PMS_P1;PMS_P2;Temp;Humidity;BMP_temperature;BMP_pressure;BME280_temperature;BME280_humidity;BME280_pressure;Samples;Min_cycle;Max_cycle;Signal;HPM_P1;HPM_P2
2023/05/06 00:01:52;;;;;;;14.48;9.48;;;;;;;-143.48;100.00;118439.88;5038527;28;20056;-69
2023/05/06 00:04:18;;;;;;;13.82;9.73;;;;;;;-143.48;100.00;118439.88;5056272;28;20029;-68
2023/05/06 00:06:43;;;;;;;16.52;9.75;;;;;;;-143.48;100.00;118439.88;5056372;28;20082;-69
2023/05/06 00:09:09;;;;;;;17.65;9.73;;;;;;;-143.48;100.00;118439.88;5056506;28;20021;-69
2023/05/06 00:11:35;;;;;;;14.75;9.93;;;;;;;-143.48;100.00;118439.88;5038192;28;20082;-69
2023/05/06 00:14:00;;;;;;;14.52;9.65;;;;;;;-143.48;100.00;118439.88;5038109;28;20017;-70
2023/05/06 00:16:25;;;;;;;14.27;10.02;;;;;;;-143.48;100.00;118439.88;5056110;28;20025;-70
2023/05/06 00:18:51;;;;;;;15.35;9.50;;;;;;;-143.48;100.00;118439.88;5056119;28;20070;-70
2023/05/06 00:21:16;;;;;;;14.15;9.52;;;;;;;-143.48;100.00;118439.88;5055860;28;20111;-70
2023/05/06 00:23:41;;;;;;;15.80;9.93;;;;;;;-143.48;100.00;118439.88;5055133;28;20040;-68
2023/05/06 00:26:08;;;;;;;15.05;10.27;;;;;;;-143.48;100.00;118439.88;5053817;28;20036;-69
2023/05/06 00:28:33;;;;;;;15.57;9.93;;;;;;;-143.48;100.00;118439.88;5053954;28;20032;-68
2023/05/06 00:30:58;;;;;;;19.40;10.20;;;;;;;-143.48;100.00;118439.88;5053947;28;20402;-69
2023/05/06 00:33:25;;;;;;;14.95;9.80;;;;;;;-143.48;100.00;118439.88;5035939;28;20036;-70
2023/05/06 00:35:51;;;;;;;20.63;10.55;;;;;;;-143.48;100.00;118439.88;5035810;28;20381;-69
2023/05/06 00:38:18;;;;;;;14.65;9.85;;;;;;;-143.48;100.00;118439.88;5053720;28;20024;-69
2023/05/06 00:40:44;;;;;;;14.43;9.40;;;;;;;-143.48;100.00;118439.88;5053643;28;20109;-69
2023/05/06 00:43:09;;;;;;;14.00;9.57;;;;;;;-143.48;100.00;118439.88;5035754;28;20048;-69
2023/05/06 00:45:35;;;;;;;15.75;9.68;;;;;;;-143.48;100.00;118439.88;5053211;28;20057;-69
2023/05/06 00:48:02;;;;;;;13.80;9.40;;;;;;;-143.48;100.00;118439.88;5036135;28;20036;-68
2023/05/06 00:50:28;;;;;;;15.00;10.00;;;;;;;-143.48;100.00;118439.88;5055310;28;20021;-69
2023/05/06 00:52:55;;;;;;;17.48;9.93;;;;;;;-143.48;100.00;118439.88;5037667;28;20033;-68
2023/05/06 00:55:21;;;;;;;16.60;9.68;;;;;;;-143.48;100.00;118439.88;5055409;28;20075;-69
2023/05/06 00:57:48;;;;;;;14.52;9.82;;;;;;;-143.48;100.00;118439.88;5055301;28;20477;-69
2023/05/06 01:00:14;;;;;;;14.80;10.07;;;;;;;-143.48;100.00;118439.88;5055377;28;20028;-69
2023/05/06 01:02:40;;;;;;;13.52;9.45;;;;;;;-143.48;100.00;118439.88;5037344;28;20107;-69
2023/05/06 01:05:06;;;;;;;14.98;9.75;;;;;;;-143.48;100.00;118439.88;5037234;28;20103;-69
2023/05/06 01:07:42;;;;;;;14.30;10.13;;;;;;;-143.48;100.00;118439.88;5055203;28;20392;-69
2023/05/06 01:10:19;;;;;;;14.40;9.52;;;;;;;-143.48;100.00;118439.88;5054586;28;20029;-67
2023/05/06 01:12:48;;;;;;;14.45;9.25;;;;;;;-143.48;100.00;118439.88;5037126;28;20037;-68
2023/05/06 01:15:24;;;;;;;17.17;10.80;;;;;;;-143.48;100.00;118439.88;5037511;28;20094;-69
2023/05/06 01:17:53;;;;;;;15.13;10.02;;;;;;;-143.48;100.00;118439.88;5054955;28;20068;-69
2023/05/06 01:20:20;;;;;;;14.43;9.77;;;;;;;-143.48;100.00;118439.88;5037015;28;20101;-68
2023/05/06 01:22:48;;;;;;;14.77;9.85;;;;;;;-143.48;100.00;118439.88;5054841;28;20047;-69
2023/05/06 01:25:22;;;;;;;14.32;9.57;;;;;;;-143.48;100.00;118439.88;5054838;28;20128;-69
2023/05/06 01:27:49;;;;;;;15.30;10.05;;;;;;;-143.48;100.00;118439.88;5036889;28;20043;-68
2023/05/06 01:30:16;;;;;;;14.88;10.43;;;;;;;-143.48;100.00;118439.88;5054574;28;20028;-69
2023/05/06 01:32:59;;;;;;;19.85;9.85;;;;;;;-143.48;100.00;118439.88;5054638;28;20032;-69
2023/05/06 01:35:39;;;;;;;15.13;9.73;;;;;;;-143.48;100.00;118439.88;5054646;28;20025;-69
2023/05/06 01:38:10;;;;;;;14.13;10.20;;;;;;;-143.48;100.00;118439.88;5054533;28;20103;-68
2023/05/06 01:40:36;;;;;;;16.98;10.75;;;;;;;-143.48;100.00;118439.88;5054694;28;20032;-69
2023/05/06 01:43:04;;;;;;;13.57;9.60;;;;;;;-143.48;100.00;118439.88;5036679;28;20028;-68
2023/05/06 01:45:34;;;;;;;16.92;9.75;;;;;;;-143.48;100.00;118439.88;5054192;28;20017;-68
2023/05/06 01:47:59;;;;;;;18.05;10.98;;;;;;;-143.48;100.00;118439.88;5036623;28;20028;-69
2023/05/06 01:50:26;;;;;;;15.00;10.02;;;;;;;-143.48;100.00;118439.88;5036576;28;20516;-69
2023/05/06 01:52:57;;;;;;;17.58;10.20;;;;;;;-143.48;100.00;118439.88;5054380;28;20070;-69
2023/05/06 01:55:22;;;;;;;17.35;9.98;;;;;;;-143.48;100.00;118439.88;5054467;28;20025;-69
2023/05/06 01:57:49;;;;;;;14.40;9.75;;;;;;;-143.48;100.00;118439.88;5054246;28;20032;-69
2023/05/06 02:00:14;;;;;;;14.45;9.40;;;;;;;-143.48;100.00;118439.88;5036377;28;20120;-68
2023/05/06 02:02:40;;;;;;;13.60;9.52;;;;;;;-143.48;100.00;118439.88;5054100;28;20124;-68
2023/05/06 02:05:06;;;;;;;13.48;10.13;;;;;;;-143.48;100.00;118439.88;5054115;28;20057;-69
2023/05/06 02:07:31;;;;;;;15.02;9.77;;;;;;;-143.48;100.00;118439.88;5054183;28;20035;-69
2023/05/06 02:09:56;;;;;;;12.68;8.90;;;;;;;-143.48;100.00;118439.88;5054082;28;20032;-69
2023/05/06 02:12:22;;;;;;;12.60;9.30;;;;;;;-143.48;100.00;118439.88;5054048;28;20492;-68
2023/05/06 02:14:47;;;;;;;13.88;9.75;;;;;;;-143.48;100.00;118439.88;5053733;28;20021;-68
2023/05/06 02:17:12;;;;;;;16.77;9.95;;;;;;;-143.48;100.00;118439.88;5053996;28;20021;-69
2023/05/06 02:19:37;;;;;;;19.48;10.48;;;;;;;-143.48;100.00;118439.88;5035397;28;20055;-69
2023/05/06 02:22:03;;;;;;;16.13;10.00;;;;;;;-143.48;100.00;118439.88;5035371;28;20539;-69
2023/05/06 02:24:28;;;;;;;17.40;9.52;;;;;;;-143.48;100.00;118439.88;5053774;28;20046;-69
2023/05/06 02:26:53;;;;;;;15.57;9.82;;;;;;;-143.48;100.00;118439.88;5053759;28;20036;-70
2023/05/06 02:29:19;;;;;;;15.77;10.13;;;;;;;-143.48;100.00;118439.88;5053804;28;20110;-69
2023/05/06 02:31:44;;;;;;;13.38;9.27;;;;;;;-143.48;100.00;118439.88;5035813;28;20392;-69
2023/05/06 02:34:10;;;;;;;15.57;9.65;;;;;;;-143.48;100.00;118439.88;5035695;28;20025;-69
2023/05/06 02:36:35;;;;;;;17.10;9.85;;;;;;;-143.48;100.00;118439.88;5053418;28;20606;-69
2023/05/06 02:39:00;;;;;;;15.48;9.70;;;;;;;-143.48;100.00;118439.88;5053531;28;20029;-69
2023/05/06 02:41:26;;;;;;;15.48;10.98;;;;;;;-143.48;100.00;118439.88;5035602;28;20392;-69
2023/05/06 02:43:51;;;;;;;13.98;10.10;;;;;;;-143.48;100.00;118439.88;5035653;28;20017;-69
2023/05/06 02:46:16;;;;;;;15.50;10.18;;;;;;;-143.48;100.00;118439.88;5035443;28;20123;-69
2023/05/06 02:48:41;;;;;;;14.02;9.60;;;;;;;-143.48;100.00;118439.88;5053498;28;20035;-68
2023/05/06 02:51:07;;;;;;;14.10;9.98;;;;;;;-143.48;100.00;118439.88;5053629;28;20017;-68
2023/05/06 02:53:32;;;;;;;15.15;10.55;;;;;;;-143.48;100.00;118439.88;5035747;28;20081;-68
2023/05/06 02:55:57;;;;;;;17.50;11.30;;;;;;;-143.48;100.00;118439.88;5053990;28;20043;-69
2023/05/06 02:58:23;;;;;;;14.13;10.05;;;;;;;-143.48;100.00;118439.88;5053726;28;20033;-68
2023/05/06 03:00:48;;;;;;;25.58;10.18;;;;;;;-143.48;100.00;118439.88;5054394;28;20021;-68
2023/05/06 03:03:13;;;;;;;16.85;10.20;;;;;;;-143.48;100.00;118439.88;5054322;28;20055;-69
2023/05/06 03:05:39;;;;;;;15.50;10.70;;;;;;;-143.48;100.00;118439.88;5054737;28;20111;-69
2023/05/06 03:08:04;;;;;;;17.85;11.57;;;;;;;-143.48;100.00;118439.88;5058491;28;20074;-68
2023/05/06 03:10:30;;;;;;;15.68;11.18;;;;;;;-143.48;100.00;118439.88;5041326;28;20021;-69
2023/05/06 03:12:55;;;;;;;18.52;12.02;;;;;;;-143.48;100.00;118439.88;5060001;28;20033;-69
2023/05/06 03:15:20;;;;;;;19.13;11.85;;;;;;;-143.48;100.00;118439.88;5060113;28;20021;-68
2023/05/06 03:17:46;;;;;;;18.35;11.88;;;;;;;-143.48;100.00;118439.88;5059333;28;20111;-70
2023/05/06 03:20:12;;;;;;;17.10;11.38;;;;;;;-143.48;100.00;118439.88;5041607;28;20021;-68
2023/05/06 03:22:37;;;;;;;18.38;12.07;;;;;;;-143.48;100.00;118439.88;5037916;28;20499;-68
2023/05/06 03:25:03;;;;;;;17.42;12.00;;;;;;;-143.48;100.00;118439.88;5053883;28;20056;-69
2023/05/06 03:27:28;;;;;;;20.27;12.45;;;;;;;-143.48;100.00;118439.88;5053394;28;20029;-67
2023/05/06 03:29:54;;;;;;;18.38;12.13;;;;;;;-143.48;100.00;118439.88;5053319;28;20025;-69
2023/05/06 03:32:19;;;;;;;17.63;12.57;;;;;;;-143.48;100.00;118439.88;5054818;28;20497;-69
2023/05/06 03:34:45;;;;;;;18.58;12.38;;;;;;;-143.48;100.00;118439.88;5056857;28;20052;-69
2023/05/06 03:37:10;;;;;;;16.08;11.52;;;;;;;-143.48;100.00;118439.88;5057030;28;20115;-69
2023/05/06 03:39:35;;;;;;;20.35;12.50;;;;;;;-143.48;100.00;118439.88;5039081;28;20422;-70
2023/05/06 03:42:01;;;;;;;17.98;12.68;;;;;;;-143.48;100.00;118439.88;5056993;28;20503;-69
2023/05/06 03:44:26;;;;;;;18.23;11.73;;;;;;;-143.48;100.00;118439.88;5056709;28;20492;-69
2023/05/06 03:46:51;;;;;;;19.08;11.80;;;;;;;-143.48;100.00;118439.88;5056511;28;20064;-68
2023/05/06 03:49:17;;;;;;;21.33;11.68;;;;;;;-143.48;100.00;118439.88;5056684;28;20028;-68
2023/05/06 03:51:42;;;;;;;18.05;11.95;;;;;;;-143.48;100.00;118439.88;5038819;28;20082;-68
2023/05/06 03:54:07;;;;;;;17.25;11.57;;;;;;;-143.48;100.00;118439.88;5056752;28;20024;-69
2023/05/06 03:56:33;;;;;;;16.50;11.10;;;;;;;-143.48;100.00;118439.88;5056660;28;20021;-69
2023/05/06 03:58:58;;;;;;;15.95;11.32;;;;;;;-143.48;100.00;118439.88;5038784;28;20031;-69
2023/05/06 04:01:23;;;;;;;16.40;11.32;;;;;;;-143.48;100.00;118439.88;5056449;28;20020;-69
2023/05/06 04:03:49;;;;;;;17.13;11.43;;;;;;;-143.48;100.00;118439.88;5056698;28;20118;-69
2023/05/06 04:06:14;;;;;;;15.63;10.30;;;;;;;-143.48;100.00;118439.88;5038437;28;20025;-69
2023/05/06 04:08:39;;;;;;;16.20;11.20;;;;;;;-143.48;100.00;118439.88;5056383;28;20021;-68
2023/05/06 04:11:06;;;;;;;20.98;11.77;;;;;;;-143.48;100.00;118439.88;5056290;28;20017;-69
2023/05/06 04:13:35;;;;;;;14.80;11.07;;;;;;;-143.48;100.00;118439.88;5038346;28;20488;-69
2023/05/06 04:16:01;;;;;;;16.30;11.50;;;;;;;-143.48;100.00;118439.88;5056359;28;20017;-69
2023/05/06 04:18:26;;;;;;;18.08;11.50;;;;;;;-143.48;100.00;118439.88;5056095;28;20027;-68
2023/05/06 04:20:52;;;;;;;17.58;11.57;;;;;;;-143.48;100.00;118439.88;5056157;28;20450;-69
2023/05/06 04:23:17;;;;;;;17.70;11.57;;;;;;;-143.48;100.00;118439.88;5056149;28;20095;-69
2023/05/06 04:25:47;;;;;;;17.50;11.82;;;;;;;-143.48;100.00;118439.88;5056276;28;20029;-69
2023/05/06 04:28:15;;;;;;;16.42;11.55;;;;;;;-143.48;100.00;118439.88;5056038;28;20384;-69
2023/05/06 04:30:40;;;;;;;18.05;12.20;;;;;;;-143.48;100.00;118439.88;5038231;28;20104;-69
2023/05/06 04:33:06;;;;;;;18.92;11.82;;;;;;;-143.48;100.00;118439.88;5037862;28;20055;-69
2023/05/06 04:35:31;;;;;;;16.90;11.68;;;;;;;-143.48;100.00;118439.88;5055893;28;20052;-69
2023/05/06 04:37:56;;;;;;;17.63;10.68;;;;;;;-143.48;100.00;118439.88;5055927;28;20048;-69
2023/05/06 04:40:22;;;;;;;18.48;11.45;;;;;;;-143.48;100.00;118439.88;5038077;28;20036;-69
2023/05/06 04:42:47;;;;;;;20.23;12.13;;;;;;;-143.48;100.00;118439.88;5055170;28;20091;-70
2023/05/06 04:45:13;;;;;;;20.02;13.63;;;;;;;-143.48;100.00;118439.88;5055126;28;20439;-70
2023/05/06 04:47:38;;;;;;;20.25;13.98;;;;;;;-143.48;100.00;118439.88;5037525;28;20049;-69
2023/05/06 04:50:04;;;;;;;22.88;13.93;;;;;;;-143.48;100.00;118439.88;5055662;28;20361;-69
2023/05/06 04:52:29;;;;;;;20.65;14.23;;;;;;;-143.48;100.00;118439.88;5055352;28;20029;-69
2023/05/06 04:54:55;;;;;;;21.42;15.00;;;;;;;-143.48;100.00;118439.88;5037565;28;20025;-69
2023/05/06 04:57:20;;;;;;;20.33;14.40;;;;;;;-143.48;100.00;118439.88;5055490;28;20029;-69
2023/05/06 04:59:45;;;;;;;22.15;16.38;;;;;;;-143.48;100.00;118439.88;5055517;28;20025;-69
2023/05/06 05:02:11;;;;;;;26.58;16.60;;;;;;;-143.48;100.00;118439.88;5055260;28;20485;-70
2023/05/06 05:04:36;;;;;;;24.35;16.63;;;;;;;-143.48;100.00;118439.88;5037331;28;20392;-69
2023/05/06 05:07:01;;;;;;;25.20;16.45;;;;;;;-143.48;100.00;118439.88;5055099;28;20021;-69
2023/05/06 05:09:27;;;;;;;23.58;16.48;;;;;;;-143.48;100.00;118439.88;5055144;28;20384;-69
2023/05/06 05:11:52;;;;;;;25.75;17.60;;;;;;;-143.48;100.00;118439.88;5037601;28;20071;-69
2023/05/06 05:14:17;;;;;;;27.38;17.27;;;;;;;-143.48;100.00;118439.88;5055169;28;20358;-69
2023/05/06 05:16:42;;;;;;;24.58;17.25;;;;;;;-143.48;100.00;118439.88;5037404;28;20055;-69
2023/05/06 05:19:08;;;;;;;23.55;17.85;;;;;;;-143.48;100.00;118439.88;5037156;28;20121;-68
2023/05/06 05:21:33;;;;;;;27.10;17.50;;;;;;;-143.48;100.00;118439.88;5037044;28;20127;-70
2023/05/06 05:23:58;;;;;;;27.27;17.98;;;;;;;-143.48;100.00;118439.88;5054948;28;20075;-69
2023/05/06 05:26:24;;;;;;;25.92;17.88;;;;;;;-143.48;100.00;118439.88;5036976;28;20123;-69
2023/05/06 05:28:49;;;;;;;26.23;17.90;;;;;;;-143.48;100.00;118439.88;5055015;28;20116;-69
2023/05/06 05:31:14;;;;;;;29.80;17.10;;;;;;;-143.48;100.00;118439.88;5037003;28;20070;-69
2023/05/06 05:33:39;;;;;;;25.08;16.92;;;;;;;-143.48;100.00;118439.88;5054788;28;20469;-70
2023/05/06 05:36:05;;;;;;;23.58;16.55;;;;;;;-143.48;100.00;118439.88;5054791;28;20130;-68
2023/05/06 05:38:31;;;;;;;23.92;16.42;;;;;;;-143.48;100.00;118439.88;5054681;28;20033;-68
2023/05/06 05:40:56;;;;;;;26.10;17.02;;;;;;;-143.48;100.00;118439.88;5036920;28;20028;-68
2023/05/06 05:43:24;;;;;;;25.35;17.05;;;;;;;-143.48;100.00;118439.88;5036644;28;20392;-69
2023/05/06 05:45:50;;;;;;;25.33;17.13;;;;;;;-143.48;100.00;118439.88;5054237;28;20492;-69
2023/05/06 05:48:15;;;;;;;25.40;16.80;;;;;;;-143.48;100.00;118439.88;5054502;28;20083;-69
2023/05/06 05:50:40;;;;;;;24.52;16.55;;;;;;;-143.48;100.00;118439.88;5054475;28;20025;-69
2023/05/06 05:53:06;;;;;;;24.80;17.30;;;;;;;-143.48;100.00;118439.88;5054344;28;20028;-69
2023/05/06 05:55:31;;;;;;;24.95;16.73;;;;;;;-143.48;100.00;118439.88;5054228;28;20027;-70
2023/05/06 05:57:56;;;;;;;25.23;17.08;;;;;;;-143.48;100.00;118439.88;5054349;28;20056;-69
2023/05/06 06:00:22;;;;;;;26.65;16.35;;;;;;;-143.48;100.00;118439.88;5036455;28;20070;-69
2023/05/06 06:02:47;;;;;;;24.88;16.85;;;;;;;-143.48;100.00;118439.88;5054186;28;20083;-69
2023/05/06 06:05:12;;;;;;;27.10;16.30;;;;;;;-143.48;100.00;118439.88;5054005;28;20029;-69
2023/05/06 06:07:38;;;;;;;25.38;17.13;;;;;;;-143.48;100.00;118439.88;5054218;28;20030;-70
2023/05/06 06:10:04;;;;;;;28.65;16.35;;;;;;;-143.48;100.00;118439.88;5054250;28;20400;-69
2023/05/06 06:12:29;;;;;;;23.23;16.75;;;;;;;-143.48;100.00;118439.88;5054107;28;20079;-70
2023/05/06 06:14:55;;;;;;;23.52;15.95;;;;;;;-143.48;100.00;118439.88;5036152;28;20021;-69
2023/05/06 06:17:20;;;;;;;22.05;15.77;;;;;;;-143.48;100.00;118439.88;5053935;28;20028;-69
2023/05/06 06:19:45;;;;;;;26.40;16.45;;;;;;;-143.48;100.00;118439.88;5053911;28;20057;-69
2023/05/06 06:22:11;;;;;;;24.65;15.77;;;;;;;-143.48;100.00;118439.88;5036038;28;20032;-69
2023/05/06 06:24:36;;;;;;;23.17;15.52;;;;;;;-143.48;99.70;118439.88;5035904;28;20025;-75
2023/05/06 06:27:02;;;;;;;27.83;16.13;;;;;;;-143.48;98.53;118439.88;5053805;28;20048;-75
2023/05/06 06:29:27;;;;;;;22.50;15.70;;;;;;;-143.48;97.75;118439.88;5036017;28;20021;-75
2023/05/06 06:31:54;;;;;;;20.55;14.52;;;;;;;-143.48;95.23;118439.88;5053592;28;20071;-75
2023/05/06 06:34:20;;;;;;;22.75;15.20;;;;;;;-143.48;90.28;118439.88;5053725;28;20025;-75
2023/05/06 06:36:45;;;;;;;20.55;14.15;;;;;;;-143.48;89.69;118439.88;5053572;28;20028;-75
2023/05/06 06:39:11;;;;;;;22.35;15.10;;;;;;;-143.48;91.24;118439.88;5053669;28;20052;-75
2023/05/06 06:41:37;;;;;;;19.60;14.13;;;;;;;-143.48;90.40;118439.88;5053581;28;20025;-76
2023/05/06 06:44:02;;;;;;;18.42;13.88;;;;;;;-143.48;89.82;118439.88;5053660;28;20114;-76
2023/05/06 06:46:27;;;;;;;20.63;14.25;;;;;;;-143.48;88.86;118439.88;5053274;28;20492;-75
2023/05/06 06:48:53;;;;;;;19.20;13.77;;;;;;;-143.48;86.35;118439.88;5035594;28;20032;-77
2023/05/06 06:51:18;;;;;;;21.63;13.93;;;;;;;-143.48;80.31;118439.88;5053431;28;20020;-76
2023/05/06 06:53:43;;;;;;;19.80;13.52;;;;;;;-143.48;81.34;118439.88;5053691;28;20029;-76
2023/05/06 06:56:11;;;;;;;19.65;13.23;;;;;;;-143.48;81.91;118439.88;5035499;28;20060;-75
2023/05/06 06:58:36;;;;;;;18.73;13.60;;;;;;;-143.48;84.23;118439.88;5035407;28;20032;-75
2023/05/06 07:01:01;;;;;;;17.77;13.48;;;;;;;-143.48;81.50;118439.88;5035492;28;20469;-76
2023/05/06 07:03:27;;;;;;;17.08;13.43;;;;;;;-143.48;77.25;118439.88;5053255;28;20135;-74
2023/05/06 07:05:52;;;;;;;17.58;13.05;;;;;;;-143.48;75.17;118439.88;5052929;28;20552;-75
2023/05/06 07:08:20;;;;;;;19.35;12.80;;;;;;;-143.48;78.31;118439.88;5052898;28;20358;-75
2023/05/06 07:10:45;;;;;;;20.77;13.70;;;;;;;-143.48;80.29;118439.88;5053437;28;20053;-75
2023/05/06 07:13:10;;;;;;;20.73;14.18;;;;;;;-143.48;83.73;118439.88;5035540;28;20071;-76
2023/05/06 07:15:36;;;;;;;20.33;14.00;;;;;;;-143.48;85.62;118439.88;5053221;28;20100;-76
2023/05/06 07:18:01;;;;;;;18.83;14.50;;;;;;;-143.48;85.68;118439.88;5035259;28;20104;-75
2023/05/06 07:20:26;;;;;;;24.35;14.75;;;;;;;-143.48;85.05;118439.88;5035395;28;20068;-75
2023/05/06 07:22:52;;;;;;;22.05;15.35;;;;;;;-143.48;84.32;118439.88;5053165;28;20017;-75
2023/05/06 07:25:17;;;;;;;21.98;15.15;;;;;;;-143.48;84.94;118439.88;5052920;28;20072;-75
2023/05/06 07:27:42;;;;;;;22.35;15.20;;;;;;;-143.48;81.97;118439.88;5053470;28;20480;-76
2023/05/06 07:30:08;;;;;;;21.42;14.55;;;;;;;-143.48;75.52;118439.88;5053122;28;20388;-76
2023/05/06 07:32:33;;;;;;;20.60;14.27;;;;;;;-143.48;72.08;118439.88;5053098;28;20056;-76
2023/05/06 07:34:59;;;;;;;24.85;15.93;;;;;;;-143.48;75.36;118439.88;5053030;28;20021;-75
2023/05/06 07:37:24;;;;;;;24.08;16.35;;;;;;;-143.48;77.51;118439.88;5053017;28;20423;-74
2023/05/06 07:39:49;;;;;;;27.85;17.27;;;;;;;-143.48;77.85;118439.88;5035265;28;20052;-76
2023/05/06 07:42:15;;;;;;;29.48;17.17;;;;;;;-143.48;75.57;118439.88;5052947;28;20017;-75
2023/05/06 07:44:40;;;;;;;22.60;16.13;;;;;;;-143.48;79.00;118439.88;5052782;28;20052;-75
2023/05/06 07:47:05;;;;;;;20.13;14.30;;;;;;;-143.48;78.95;118439.88;5052834;28;20500;-75
2023/05/06 07:49:33;;;;;;;25.20;15.90;;;;;;;-143.48;79.21;118439.88;5053009;28;20064;-75
2023/05/06 07:51:58;;;;;;;25.25;16.13;;;;;;;-143.48;79.60;118439.88;5035099;28;20036;-76
2023/05/06 07:54:23;;;;;;;25.63;16.20;;;;;;;-143.48;78.65;118439.88;5034904;28;20029;-76
2023/05/06 07:56:49;;;;;;;23.52;16.25;;;;;;;-143.48;79.76;118439.88;5035085;28;20028;-76
2023/05/06 07:59:14;;;;;;;23.73;16.88;;;;;;;-143.48;77.45;118439.88;5034913;28;20027;-76
2023/05/06 08:01:39;;;;;;;28.17;18.65;;;;;;;-143.48;78.98;118439.88;5035016;28;20122;-76
2023/05/06 08:04:06;;;;;;;26.52;18.50;;;;;;;-143.48;78.88;118439.88;5035136;28;20443;-76
2023/05/06 08:06:31;;;;;;;28.13;19.48;;;;;;;-143.48;77.88;118439.88;5053041;28;20025;-76
2023/05/06 08:08:57;;;;;;;31.58;21.17;;;;;;;-143.48;79.91;118439.88;5052728;28;20035;-77
2023/05/06 08:11:22;;;;;;;29.63;20.67;;;;;;;-143.48;77.66;118439.88;5035052;28;20025;-76
2023/05/06 08:13:48;;;;;;;32.90;20.17;;;;;;;-143.48;79.79;118439.88;5052756;28;20027;-76
2023/05/06 08:16:13;;;;;;;33.60;20.15;;;;;;;-143.48;81.26;118439.88;5053008;28;20052;-74
2023/05/06 08:18:38;;;;;;;27.85;19.50;;;;;;;-143.48;76.86;118439.88;5036999;28;20051;-75
2023/05/06 08:21:04;;;;;;;27.80;19.23;;;;;;;-143.48;79.07;118439.88;5056575;28;20032;-76
2023/05/06 08:23:30;;;;;;;31.17;19.27;;;;;;;-143.48;74.88;118439.88;5039337;28;20032;-75
2023/05/06 08:25:56;;;;;;;29.33;19.33;;;;;;;-143.48;71.70;118439.88;5056486;28;20480;-75
2023/05/06 08:28:21;;;;;;;32.97;22.52;;;;;;;-143.48;67.66;118439.88;5038370;28;20020;-75
2023/05/06 08:30:47;;;;;;;35.35;24.10;;;;;;;-143.48;66.78;118439.88;5056212;28;20024;-75
2023/05/06 08:33:12;;;;;;;36.08;24.15;;;;;;;-143.48;67.73;118439.88;5056076;28;20032;-75
2023/05/06 08:35:38;;;;;;;34.40;24.08;;;;;;;-143.48;66.71;118439.88;5056305;28;20384;-75
2023/05/06 08:38:03;;;;;;;34.00;23.15;;;;;;;-143.48;68.56;118439.88;5055894;28;20503;-74
2023/05/06 08:40:31;;;;;;;35.78;23.08;;;;;;;-143.48;70.67;118439.88;5038020;28;20027;-76
2023/05/06 08:42:58;;;;;;;33.47;22.65;;;;;;;-143.48;67.34;118439.88;5057201;28;20388;-75
2023/05/06 08:45:24;;;;;;;33.85;22.13;;;;;;;-143.48;66.25;118439.88;5057005;28;20028;-75
2023/05/06 08:47:49;;;;;;;28.35;21.52;;;;;;;-143.48;64.60;118439.88;5061213;28;20029;-74
2023/05/06 08:50:15;;;;;;;35.50;21.58;;;;;;;-143.48;66.35;118439.88;5038210;28;20028;-75
2023/05/06 08:52:40;;;;;;;38.00;21.40;;;;;;;-143.48;66.60;118439.88;5056924;28;20025;-74
2023/05/06 08:55:07;;;;;;;29.63;21.52;;;;;;;-143.48;65.31;118439.88;5056484;28;20435;-76
2023/05/06 08:57:33;;;;;;;32.33;21.75;;;;;;;-143.48;63.64;118439.88;5056390;28;20090;-75
2023/05/06 08:59:59;;;;;;;27.27;18.30;;;;;;;-143.48;62.65;118439.88;5056435;28;20101;-74
2023/05/06 09:02:25;;;;;;;27.10;17.83;;;;;;;-143.48;67.10;118439.88;5054940;28;20025;-75
2023/05/06 09:04:52;;;;;;;27.65;18.67;;;;;;;-143.48;63.46;118439.88;5054080;28;20028;-73
2023/05/06 09:07:20;;;;;;;30.52;19.05;;;;;;;-143.48;63.87;118439.88;5035970;28;20044;-73
2023/05/06 09:09:46;;;;;;;26.10;16.73;;;;;;;-143.48;61.55;118439.88;5035831;28;20477;-73
2023/05/06 09:12:12;;;;;;;28.27;15.75;;;;;;;-143.48;62.36;118439.88;5053682;28;20025;-72
2023/05/06 09:14:38;;;;;;;24.30;16.02;;;;;;;-143.48;62.48;118439.88;5053525;28;20021;-73
2023/05/06 09:17:04;;;;;;;22.17;13.27;;;;;;;-143.48;58.58;118439.88;5036852;28;20059;-73
2023/05/06 09:19:29;;;;;;;20.55;14.05;;;;;;;-143.48;59.44;118439.88;5037786;28;20074;-74
2023/05/06 09:21:56;;;;;;;17.67;11.13;;;;;;;-143.48;55.68;118439.88;5055836;28;20021;-70
2023/05/06 09:24:22;;;;;;;23.13;13.63;;;;;;;-143.48;56.27;118439.88;5038163;28;20107;-73
2023/05/06 09:26:47;;;;;;;22.15;12.52;;;;;;;-143.48;57.56;118439.88;5055356;28;20017;-72
2023/05/06 09:29:13;;;;;;;21.25;11.38;;;;;;;-143.48;56.30;118439.88;5053947;28;20029;-73
2023/05/06 09:31:46;;;;;;;22.40;12.32;;;;;;;-143.48;57.52;118439.88;5056448;28;20104;-73
2023/05/06 09:34:13;;;;;;;17.65;11.23;;;;;;;-143.48;59.66;118439.88;5056415;28;20024;-73
2023/05/06 09:36:38;;;;;;;16.65;10.73;;;;;;;-143.48;58.58;118439.88;5041573;28;20117;-72
2023/05/06 09:39:04;;;;;;;19.13;11.38;;;;;;;-143.48;55.62;118439.88;5061510;28;20100;-73
2023/05/06 09:41:30;;;;;;;17.45;10.00;;;;;;;-143.48;54.97;118439.88;5044143;28;20044;-73
2023/05/06 09:43:57;;;;;;;14.98;8.27;;;;;;;-143.48;56.65;118439.88;5045055;28;20053;-73
2023/05/06 09:46:24;;;;;;;17.45;6.78;;;;;;;-143.48;54.47;118439.88;5044703;28;20061;-72
2023/05/06 09:48:51;;;;;;;13.82;6.35;;;;;;;-143.48;51.39;118439.88;5059412;28;20473;-77
2023/05/06 09:51:17;;;;;;;16.63;6.43;;;;;;;-143.48;53.15;118439.88;5060852;28;20416;-73
2023/05/06 09:53:44;;;;;;;12.70;5.97;;;;;;;-143.48;52.91;118439.88;5042825;28;20586;-73
2023/05/06 09:56:10;;;;;;;14.85;7.00;;;;;;;-143.48;52.17;118439.88;5062806;28;20435;-73
2023/05/06 09:58:37;;;;;;;15.13;6.57;;;;;;;-143.48;53.19;118439.88;5043661;28;20039;-73
2023/05/06 10:01:03;;;;;;;11.80;6.57;;;;;;;-143.48;54.04;118439.88;5042428;28;20033;-73
2023/05/06 10:03:29;;;;;;;11.95;5.40;;;;;;;-143.48;50.66;118439.88;5068993;28;20438;-75
2023/05/06 10:05:56;;;;;;;12.20;5.05;;;;;;;-143.48;50.03;118439.88;5057483;28;20096;-73
2023/05/06 10:08:23;;;;;;;10.90;4.50;;;;;;;-143.48;51.66;118439.88;5074046;28;20055;-74
2023/05/06 10:10:49;;;;;;;11.05;5.85;;;;;;;-143.48;53.27;118439.88;5071234;28;20020;-74
2023/05/06 10:13:15;;;;;;;16.23;6.50;;;;;;;-143.48;54.83;118439.88;5059124;28;20024;-73
2023/05/06 10:15:43;;;;;;;16.58;6.65;;;;;;;-143.48;55.61;118439.88;5075516;28;20028;-73
2023/05/06 10:18:09;;;;;;;18.27;6.97;;;;;;;-143.48;55.14;118439.88;5075080;28;20099;-72
2023/05/06 10:20:35;;;;;;;14.05;6.22;;;;;;;-143.48;55.21;118439.88;5076471;28;20029;-74
2023/05/06 10:23:24;;;;;;;13.30;6.22;;;;;;;-143.48;54.02;118439.88;5076105;28;20062;-74
2023/05/06 10:25:54;;;;;;;12.48;6.35;;;;;;;-143.48;53.29;118439.88;5059156;28;20088;-75
2023/05/06 10:28:20;;;;;;;14.02;6.65;;;;;;;-143.48;53.25;118439.88;5058390;28;20124;-73
2023/05/06 10:30:47;;;;;;;12.48;5.50;;;;;;;-143.48;51.27;118439.88;5058548;28;20033;-74
2023/05/06 10:33:14;;;;;;;13.13;5.80;;;;;;;-143.48;53.16;118439.88;5076477;28;20121;-74
2023/05/06 10:35:40;;;;;;;17.20;5.70;;;;;;;-143.48;52.63;118439.88;5076943;28;20045;-74
2023/05/06 10:38:11;;;;;;;9.50;4.97;;;;;;;-143.48;49.59;118439.88;5076267;28;20009;-74
2023/05/06 10:40:36;;;;;;;11.75;5.57;;;;;;;-143.48;51.58;118439.88;5074842;28;20025;-75
2023/05/06 10:43:23;;;;;;;13.77;6.57;;;;;;;-143.48;51.37;118439.88;5057097;28;20017;-75
2023/05/06 10:45:57;;;;;;;16.98;6.80;;;;;;;-143.48;53.04;118439.88;5075215;28;20053;-74
2023/05/06 10:48:22;;;;;;;10.75;5.90;;;;;;;-143.48;52.18;118439.88;5066623;28;20025;-76